sensor_id;sensor_type;location;lat;lon;timestamp;pressure;altitude;pressure_sealevel;temperature;humidity
16595;BME280;8410;52.532;13.336;2022-08-01T00:01:15;100756.38;;;23.95;64.46
16595;BME280;8410;52.532;13.336;2022-08-01T00:03:43;100756.28;;;23.34;66.32
16595;BME280;8410;52.532;13.336;2022-08-01T00:06:12;100760.66;;;23.55;66.07
16595;BME280;8410;52.532;13.336;2022-08-01T00:08:40;100762.25;;;23.16;67.28
16595;BME280;8410;52.532;13.336;2022-08-01T00:11:08;100765.72;;;23.38;66.84
16595;BME280;8410;52.532;13.336;2022-08-01T00:13:36;100768.31;;;23.60;66.21
16595;BME280;8410;52.532;13.336;2022-08-01T00:16:04;100771.47;;;23.48;67.12
16595;BME280;8410;52.532;13.336;2022-08-01T00:18:32;100769.47;;;23.10;69.24
16595;BME280;8410;52.532;13.336;2022-08-01T00:21:01;100766.44;;;22.98;70.26
16595;BME280;8410;52.532;13.336;2022-08-01T00:23:30;100768.47;;;23.13;69.54
16595;BME280;8410;52.532;13.336;2022-08-01T00:25:58;100758.94;;;23.10;70.06
16595;BME280;8410;52.532;13.336;2022-08-01T00:28:27;100752.09;;;23.06;70.93
16595;BME280;8410;52.532;13.336;2022-08-01T00:30:55;100767.28;;;22.98;71.62
16595;BME280;8410;52.532;13.336;2022-08-01T00:33:23;100771.16;;;23.11;72.01
16595;BME280;8410;52.532;13.336;2022-08-01T00:35:51;100765.72;;;23.38;71.21
16595;BME280;8410;52.532;13.336;2022-08-01T00:38:18;100767.50;;;22.68;74.79
16595;BME280;8410;52.532;13.336;2022-08-01T00:40:49;100767.47;;;22.70;75.60
16595;BME280;8410;52.532;13.336;2022-08-01T00:43:17;100755.88;;;22.76;75.50
16595;BME280;8410;52.532;13.336;2022-08-01T00:45:45;100764.31;;;22.60;76.46
16595;BME280;8410;52.532;13.336;2022-08-01T00:48:13;100755.81;;;22.77;76.36
16595;BME280;8410;52.532;13.336;2022-08-01T00:50:41;100759.03;;;23.51;73.66
16595;BME280;8410;52.532;13.336;2022-08-01T00:53:09;100761.63;;;23.53;73.72
16595;BME280;8410;52.532;13.336;2022-08-01T00:55:44;100753.03;;;23.70;72.94
16595;BME280;8410;52.532;13.336;2022-08-01T00:58:14;100754.25;;;23.83;72.79
16595;BME280;8410;52.532;13.336;2022-08-01T01:00:43;100749.72;;;23.87;72.67
16595;BME280;8410;52.532;13.336;2022-08-01T01:03:19;100748.00;;;23.86;72.30
16595;BME280;8410;52.532;13.336;2022-08-01T01:06:17;100739.28;;;23.85;72.94
16595;BME280;8410;52.532;13.336;2022-08-01T01:09:02;100743.88;;;23.80;73.57
16595;BME280;8410;52.532;13.336;2022-08-01T01:11:44;100748.09;;;23.62;73.09
16595;BME280;8410;52.532;13.336;2022-08-01T01:14:27;100744.78;;;23.99;72.58
16595;BME280;8410;52.532;13.336;2022-08-01T01:17:00;100753.97;;;23.89;72.28
16595;BME280;8410;52.532;13.336;2022-08-01T01:19:33;100744.47;;;23.65;73.82
16595;BME280;8410;52.532;13.336;2022-08-01T01:22:22;100746.00;;;23.28;75.28
16595;BME280;8410;52.532;13.336;2022-08-01T01:25:14;100743.75;;;23.83;73.32
16595;BME280;8410;52.532;13.336;2022-08-01T01:27:57;100731.75;;;24.17;71.60
16595;BME280;8410;52.532;13.336;2022-08-01T01:30:32;100736.50;;;24.09;71.44
16595;BME280;8410;52.532;13.336;2022-08-01T01:33:06;100733.06;;;24.27;70.64
16595;BME280;8410;52.532;13.336;2022-08-01T01:35:41;100724.91;;;24.13;71.30
16595;BME280;8410;52.532;13.336;2022-08-01T01:38:18;100732.16;;;24.08;71.15
16595;BME280;8410;52.532;13.336;2022-08-01T01:40:47;100729.19;;;24.15;70.62
16595;BME280;8410;52.532;13.336;2022-08-01T01:43:18;100726.22;;;24.23;70.47
16595;BME280;8410;52.532;13.336;2022-08-01T01:45:48;100730.22;;;24.32;70.13
16595;BME280;8410;52.532;13.336;2022-08-01T01:48:21;100734.78;;;24.28;70.01
16595;BME280;8410;52.532;13.336;2022-08-01T01:50:53;100725.78;;;24.32;70.12
16595;BME280;8410;52.532;13.336;2022-08-01T01:53:22;100725.50;;;24.19;70.30
16595;BME280;8410;52.532;13.336;2022-08-01T01:55:53;100729.84;;;24.00;71.40
16595;BME280;8410;52.532;13.336;2022-08-01T01:58:23;100731.34;;;24.26;70.07
16595;BME280;8410;52.532;13.336;2022-08-01T02:00:57;100717.69;;;24.18;70.68
16595;BME280;8410;52.532;13.336;2022-08-01T02:03:30;100724.63;;;24.19;70.65
16595;BME280;8410;52.532;13.336;2022-08-01T02:06:00;100726.03;;;24.07;71.17
16595;BME280;8410;52.532;13.336;2022-08-01T02:08:30;100724.34;;;24.06;70.58
16595;BME280;8410;52.532;13.336;2022-08-01T02:11:01;100733.47;;;23.97;71.15
16595;BME280;8410;52.532;13.336;2022-08-01T02:13:52;100740.38;;;24.00;71.53
16595;BME280;8410;52.532;13.336;2022-08-01T02:16:25;100733.28;;;23.82;72.02
16595;BME280;8410;52.532;13.336;2022-08-01T02:18:55;100739.09;;;23.90;71.82
16595;BME280;8410;52.532;13.336;2022-08-01T02:21:28;100734.00;;;24.06;71.21
16595;BME280;8410;52.532;13.336;2022-08-01T02:24:10;100730.97;;;23.94;72.11
16595;BME280;8410;52.532;13.336;2022-08-01T02:26:46;100738.06;;;24.13;71.08
16595;BME280;8410;52.532;13.336;2022-08-01T02:29:21;100729.94;;;23.98;71.26
16595;BME280;8410;52.532;13.336;2022-08-01T02:31:54;100731.66;;;23.79;71.97
16595;BME280;8410;52.532;13.336;2022-08-01T02:34:28;100730.75;;;23.58;73.01
16595;BME280;8410;52.532;13.336;2022-08-01T02:37:00;100729.78;;;23.81;72.32
16595;BME280;8410;52.532;13.336;2022-08-01T02:39:31;100737.50;;;23.43;74.44
16595;BME280;8410;52.532;13.336;2022-08-01T02:42:06;100736.69;;;23.84;73.08
16595;BME280;8410;52.532;13.336;2022-08-01T02:44:39;100736.13;;;23.77;72.75
16595;BME280;8410;52.532;13.336;2022-08-01T02:47:10;100733.97;;;23.65;73.95
16595;BME280;8410;52.532;13.336;2022-08-01T02:49:45;100728.97;;;23.59;73.36
16595;BME280;8410;52.532;13.336;2022-08-01T02:52:23;100734.81;;;23.87;72.86
16595;BME280;8410;52.532;13.336;2022-08-01T02:54:55;100729.66;;;23.84;73.18
16595;BME280;8410;52.532;13.336;2022-08-01T02:57:26;100733.88;;;23.88;72.77
16595;BME280;8410;52.532;13.336;2022-08-01T03:00:16;100736.50;;;23.88;72.64
16595;BME280;8410;52.532;13.336;2022-08-01T03:02:49;100734.91;;;23.84;72.81
16595;BME280;8410;52.532;13.336;2022-08-01T03:05:23;100736.47;;;23.90;72.67
16595;BME280;8410;52.532;13.336;2022-08-01T03:07:55;100737.22;;;23.92;72.81
16595;BME280;8410;52.532;13.336;2022-08-01T03:10:31;100729.16;;;23.96;72.51
16595;BME280;8410;52.532;13.336;2022-08-01T03:13:02;100740.72;;;23.92;72.64
16595;BME280;8410;52.532;13.336;2022-08-01T03:15:36;100738.22;;;23.89;72.68
16595;BME280;8410;52.532;13.336;2022-08-01T03:18:09;100737.03;;;23.76;73.00
16595;BME280;8410;52.532;13.336;2022-08-01T03:20:40;100735.84;;;23.83;73.05
16595;BME280;8410;52.532;13.336;2022-08-01T03:23:12;100734.78;;;23.67;73.98
16595;BME280;8410;52.532;13.336;2022-08-01T03:25:44;100736.91;;;23.79;73.72
16595;BME280;8410;52.532;13.336;2022-08-01T03:28:15;100742.75;;;23.86;73.25
16595;BME280;8410;52.532;13.336;2022-08-01T03:30:45;100743.88;;;23.80;73.37
16595;BME280;8410;52.532;13.336;2022-08-01T03:33:16;100747.91;;;23.67;74.49
16595;BME280;8410;52.532;13.336;2022-08-01T03:35:49;100747.94;;;23.45;74.88
16595;BME280;8410;52.532;13.336;2022-08-01T03:38:23;100745.34;;;23.65;74.20
16595;BME280;8410;52.532;13.336;2022-08-01T03:40:59;100749.97;;;23.81;74.04
16595;BME280;8410;52.532;13.336;2022-08-01T03:43:34;100754.97;;;23.87;73.88
16595;BME280;8410;52.532;13.336;2022-08-01T03:46:07;100746.38;;;23.83;74.11
16595;BME280;8410;52.532;13.336;2022-08-01T03:48:43;100756.97;;;23.60;74.82
16595;BME280;8410;52.532;13.336;2022-08-01T03:51:16;100754.31;;;23.60;74.57
16595;BME280;8410;52.532;13.336;2022-08-01T03:53:47;100762.34;;;23.56;74.56
16595;BME280;8410;52.532;13.336;2022-08-01T03:56:19;100753.91;;;23.48;75.55
16595;BME280;8410;52.532;13.336;2022-08-01T03:58:49;100756.97;;;23.60;75.18
16595;BME280;8410;52.532;13.336;2022-08-01T04:01:18;100758.81;;;23.14;76.34
16595;BME280;8410;52.532;13.336;2022-08-01T04:03:48;100757.50;;;23.68;75.03
16595;BME280;8410;52.532;13.336;2022-08-01T04:06:16;100759.84;;;23.53;75.64
16595;BME280;8410;52.532;13.336;2022-08-01T04:08:44;100754.38;;;23.80;74.37
16595;BME280;8410;52.532;13.336;2022-08-01T04:11:24;100759.78;;;23.77;74.54
16595;BME280;8410;52.532;13.336;2022-08-01T04:13:53;100756.41;;;23.73;75.18
16595;BME280;8410;52.532;13.336;2022-08-01T04:16:23;100759.78;;;23.77;74.59
16595;BME280;8410;52.532;13.336;2022-08-01T04:18:52;100754.72;;;23.93;74.60
16595;BME280;8410;52.532;13.336;2022-08-01T04:21:25;100756.19;;;23.58;76.73
16595;BME280;8410;52.532;13.336;2022-08-01T04:23:59;100756.94;;;23.82;75.85
16595;BME280;8410;52.532;13.336;2022-08-01T04:26:29;100760.72;;;23.32;77.81
16595;BME280;8410;52.532;13.336;2022-08-01T04:29:02;100760.88;;;23.49;77.65
16595;BME280;8410;52.532;13.336;2022-08-01T04:31:32;100763.84;;;23.42;77.87
16595;BME280;8410;52.532;13.336;2022-08-01T04:34:04;100767.47;;;23.60;77.79
16595;BME280;8410;52.532;13.336;2022-08-01T04:36:36;100770.56;;;23.27;79.55
16595;BME280;8410;52.532;13.336;2022-08-01T04:39:06;100769.72;;;23.04;79.57
16595;BME280;8410;52.532;13.336;2022-08-01T04:41:36;100771.38;;;23.49;78.26
16595;BME280;8410;52.532;13.336;2022-08-01T04:44:05;100773.44;;;23.85;76.98
16595;BME280;8410;52.532;13.336;2022-08-01T04:46:35;100770.56;;;23.91;76.54
16595;BME280;8410;52.532;13.336;2022-08-01T04:49:06;100778.41;;;23.93;76.44
16595;BME280;8410;52.532;13.336;2022-08-01T04:51:35;100775.13;;;23.66;77.19
16595;BME280;8410;52.532;13.336;2022-08-01T04:54:03;100780.38;;;23.66;77.15
16595;BME280;8410;52.532;13.336;2022-08-01T04:56:33;100782.97;;;23.45;79.15
16595;BME280;8410;52.532;13.336;2022-08-01T04:59:01;100792.16;;;22.41;84.81
16595;BME280;8410;52.532;13.336;2022-08-01T05:01:50;100787.84;;;23.10;81.87
16595;BME280;8410;52.532;13.336;2022-08-01T05:04:19;100778.59;;;23.00;83.24
16595;BME280;8410;52.532;13.336;2022-08-01T05:06:47;100781.53;;;23.15;81.29
16595;BME280;8410;52.532;13.336;2022-08-01T05:09:15;100786.13;;;23.31;80.89
16595;BME280;8410;52.532;13.336;2022-08-01T05:11:43;100792.91;;;23.37;80.57
16595;BME280;8410;52.532;13.336;2022-08-01T05:14:11;100788.38;;;23.19;81.06
16595;BME280;8410;52.532;13.336;2022-08-01T05:16:39;100790.34;;;23.14;81.94
16595;BME280;8410;52.532;13.336;2022-08-01T05:19:08;100794.31;;;23.02;83.32
16595;BME280;8410;52.532;13.336;2022-08-01T05:21:38;100790.59;;;23.07;82.85
16595;BME280;8410;52.532;13.336;2022-08-01T05:24:06;100792.66;;;22.99;83.69
16595;BME280;8410;52.532;13.336;2022-08-01T05:26:34;100789.66;;;22.85;83.19
16595;BME280;8410;52.532;13.336;2022-08-01T05:29:07;100790.34;;;22.90;82.98
16595;BME280;8410;52.532;13.336;2022-08-01T05:31:37;100788.63;;;22.65;85.78
16595;BME280;8410;52.532;13.336;2022-08-01T05:34:09;100792.50;;;22.55;86.13
16595;BME280;8410;52.532;13.336;2022-08-01T05:36:44;100787.59;;;22.46;86.82
16595;BME280;8410;52.532;13.336;2022-08-01T05:39:13;100796.94;;;22.77;84.36
16595;BME280;8410;52.532;13.336;2022-08-01T05:42:00;100787.81;;;22.87;84.33
16595;BME280;8410;52.532;13.336;2022-08-01T05:44:33;100793.53;;;22.75;85.24
16595;BME280;8410;52.532;13.336;2022-08-01T05:47:05;100795.69;;;22.87;84.01
16595;BME280;8410;52.532;13.336;2022-08-01T05:49:37;100795.47;;;22.93;83.85
16595;BME280;8410;52.532;13.336;2022-08-01T05:52:06;100797.06;;;22.74;84.94
16595;BME280;8410;52.532;13.336;2022-08-01T05:54:35;100803.97;;;22.53;85.75
16595;BME280;8410;52.532;13.336;2022-08-01T05:57:03;100809.53;;;22.18;87.38
16595;BME280;8410;52.532;13.336;2022-08-01T05:59:31;100806.66;;;22.26;88.58
16595;BME280;8410;52.532;13.336;2022-08-01T06:01:59;100813.63;;;22.27;86.69
16595;BME280;8410;52.532;13.336;2022-08-01T06:04:28;100811.66;;;22.07;88.77
16595;BME280;8410;52.532;13.336;2022-08-01T06:06:55;100808.47;;;22.49;86.99
16595;BME280;8410;52.532;13.336;2022-08-01T06:09:25;100816.69;;;22.63;86.09
16595;BME280;8410;52.532;13.336;2022-08-01T06:11:52;100809.78;;;22.84;84.31
16595;BME280;8410;52.532;13.336;2022-08-01T06:14:20;100808.97;;;23.07;84.35
16595;BME280;8410;52.532;13.336;2022-08-01T06:16:48;100819.88;;;22.72;84.77
16595;BME280;8410;52.532;13.336;2022-08-01T06:19:16;100817.09;;;22.28;86.81
16595;BME280;8410;52.532;13.336;2022-08-01T06:21:44;100819.81;;;22.50;86.13
16595;BME280;8410;52.532;13.336;2022-08-01T06:24:12;100821.31;;;22.57;86.93
16595;BME280;8410;52.532;13.336;2022-08-01T06:26:41;100827.19;;;22.63;86.10
16595;BME280;8410;52.532;13.336;2022-08-01T06:29:09;100827.25;;;22.62;86.46
16595;BME280;8410;52.532;13.336;2022-08-01T06:31:37;100813.34;;;22.83;85.40
16595;BME280;8410;52.532;13.336;2022-08-01T06:34:05;100807.69;;;23.62;81.74
16595;BME280;8410;52.532;13.336;2022-08-01T06:36:33;100830.19;;;22.53;84.62
16595;BME280;8410;52.532;13.336;2022-08-01T06:39:01;100828.81;;;22.67;84.88
16595;BME280;8410;52.532;13.336;2022-08-01T06:41:29;100827.19;;;22.63;85.82
16595;BME280;8410;52.532;13.336;2022-08-01T06:43:58;100815.47;;;22.97;83.94
16595;BME280;8410;52.532;13.336;2022-08-01T06:46:29;100818.94;;;23.43;81.36
16595;BME280;8410;52.532;13.336;2022-08-01T06:49:00;100825.25;;;22.68;84.48
16595;BME280;8410;52.532;13.336;2022-08-01T06:51:28;100832.69;;;22.81;83.90
16595;BME280;8410;52.532;13.336;2022-08-01T06:53:56;100828.53;;;22.99;82.83
16595;BME280;8410;52.532;13.336;2022-08-01T06:56:24;100827.38;;;22.34;84.92
16595;BME280;8410;52.532;13.336;2022-08-01T06:58:52;100823.28;;;22.99;82.84
16595;BME280;8410;52.532;13.336;2022-08-01T07:01:24;100824.16;;;22.99;81.78
16595;BME280;8410;52.532;13.336;2022-08-01T07:03:52;100831.75;;;22.82;83.58
16595;BME280;8410;52.532;13.336;2022-08-01T07:06:22;100831.25;;;22.96;82.97
16595;BME280;8410;52.532;13.336;2022-08-01T07:08:51;100831.97;;;23.01;82.65
16595;BME280;8410;52.532;13.336;2022-08-01T07:11:19;100834.03;;;22.67;84.15
16595;BME280;8410;52.532;13.336;2022-08-01T07:13:47;100833.88;;;22.96;82.29
16595;BME280;8410;52.532;13.336;2022-08-01T07:16:16;100841.63;;;22.27;86.52
16595;BME280;8410;52.532;13.336;2022-08-01T07:18:46;100845.44;;;22.43;86.84
16595;BME280;8410;52.532;13.336;2022-08-01T07:21:13;100833.19;;;22.67;85.70
16595;BME280;8410;52.532;13.336;2022-08-01T07:24:01;100835.66;;;22.95;83.59
16595;BME280;8410;52.532;13.336;2022-08-01T07:26:39;100835.50;;;22.75;84.51
16595;BME280;8410;52.532;13.336;2022-08-01T07:29:21;100846.75;;;22.03;88.25
16595;BME280;8410;52.532;13.336;2022-08-01T07:31:50;100840.75;;;22.75;85.97
16595;BME280;8410;52.532;13.336;2022-08-01T07:34:19;100837.53;;;22.92;85.49
16595;BME280;8410;52.532;13.336;2022-08-01T07:36:47;100833.91;;;23.85;79.79
16595;BME280;8410;52.532;13.336;2022-08-01T07:39:15;100830.94;;;24.35;75.99
16595;BME280;8410;52.532;13.336;2022-08-01T07:41:43;100829.38;;;24.52;75.77
16595;BME280;8410;52.532;13.336;2022-08-01T07:44:31;100845.78;;;24.36;74.52
16595;BME280;8410;52.532;13.336;2022-08-01T07:46:58;100846.75;;;24.13;75.66
16595;BME280;8410;52.532;13.336;2022-08-01T07:49:28;100850.53;;;24.28;74.31
16595;BME280;8410;52.532;13.336;2022-08-01T07:51:56;100846.84;;;24.12;75.06
16595;BME280;8410;52.532;13.336;2022-08-01T07:54:30;100859.06;;;23.01;78.54
16595;BME280;8410;52.532;13.336;2022-08-01T07:57:00;100857.00;;;23.33;79.43
16595;BME280;8410;52.532;13.336;2022-08-01T07:59:28;100868.13;;;22.93;81.57
16595;BME280;8410;52.532;13.336;2022-08-01T08:01:56;100870.25;;;22.83;81.59
16595;BME280;8410;52.532;13.336;2022-08-01T08:04:24;100875.50;;;22.83;82.15
16595;BME280;8410;52.532;13.336;2022-08-01T08:06:53;100878.13;;;22.33;83.10
16595;BME280;8410;52.532;13.336;2022-08-01T08:09:21;100875.91;;;22.20;84.55
16595;BME280;8410;52.532;13.336;2022-08-01T08:11:49;100874.88;;;22.75;81.68
16595;BME280;8410;52.532;13.336;2022-08-01T08:14:18;100870.31;;;22.80;80.21
16595;BME280;8410;52.532;13.336;2022-08-01T08:16:46;100865.56;;;23.15;78.27
16595;BME280;8410;52.532;13.336;2022-08-01T08:19:14;100864.41;;;23.45;77.40
16595;BME280;8410;52.532;13.336;2022-08-01T08:21:42;100871.59;;;23.40;76.87
16595;BME280;8410;52.532;13.336;2022-08-01T08:24:12;100873.78;;;23.52;75.27
16595;BME280;8410;52.532;13.336;2022-08-01T08:26:56;100874.78;;;23.48;76.85
16595;BME280;8410;52.532;13.336;2022-08-01T08:29:26;100880.31;;;23.19;77.65
16595;BME280;8410;52.532;13.336;2022-08-01T08:31:54;100886.13;;;23.03;77.86
16595;BME280;8410;52.532;13.336;2022-08-01T08:34:23;100868.81;;;23.89;75.55
16595;BME280;8410;52.532;13.336;2022-08-01T08:36:52;100874.31;;;23.61;75.17
16595;BME280;8410;52.532;13.336;2022-08-01T08:39:23;100878.53;;;23.65;75.06
16595;BME280;8410;52.532;13.336;2022-08-01T08:41:51;100872.69;;;23.80;74.20
16595;BME280;8410;52.532;13.336;2022-08-01T08:44:19;100879.19;;;23.70;74.56
16595;BME280;8410;52.532;13.336;2022-08-01T08:46:49;100880.56;;;23.58;75.06
16595;BME280;8410;52.532;13.336;2022-08-01T08:49:22;100882.66;;;23.72;73.28
16595;BME280;8410;52.532;13.336;2022-08-01T08:51:53;100887.03;;;22.77;77.03
16595;BME280;8410;52.532;13.336;2022-08-01T08:54:23;100875.25;;;23.36;74.81
16595;BME280;8410;52.532;13.336;2022-08-01T08:56:59;100873.44;;;23.60;74.10
16595;BME280;8410;52.532;13.336;2022-08-01T08:59:28;100874.19;;;24.28;72.34
16595;BME280;8410;52.532;13.336;2022-08-01T09:01:57;100873.06;;;23.93;73.01
16595;BME280;8410;52.532;13.336;2022-08-01T09:04:26;100872.53;;;25.26;67.92
16595;BME280;8410;52.532;13.336;2022-08-01T09:06:54;100874.84;;;24.74;69.40
16595;BME280;8410;52.532;13.336;2022-08-01T09:09:23;100878.03;;;23.99;69.90
16595;BME280;8410;52.532;13.336;2022-08-01T09:11:54;100883.59;;;23.47;72.43
16595;BME280;8410;52.532;13.336;2022-08-01T09:14:25;100893.88;;;23.30;73.82
16595;BME280;8410;52.532;13.336;2022-08-01T09:17:02;100889.97;;;23.64;73.56
16595;BME280;8410;52.532;13.336;2022-08-01T09:19:38;100895.22;;;24.08;71.89
16595;BME280;8410;52.532;13.336;2022-08-01T09:22:10;100897.69;;;23.90;73.09
16595;BME280;8410;52.532;13.336;2022-08-01T09:24:41;100900.22;;;23.71;73.29
16595;BME280;8410;52.532;13.336;2022-08-01T09:27:20;100903.78;;;23.69;72.92
16595;BME280;8410;52.532;13.336;2022-08-01T09:29:52;100904.84;;;23.41;73.72
16595;BME280;8410;52.532;13.336;2022-08-01T09:32:28;100902.69;;;23.52;74.71
16595;BME280;8410;52.532;13.336;2022-08-01T09:35:23;100908.81;;;23.51;73.90
16595;BME280;8410;52.532;13.336;2022-08-01T09:38:14;100910.19;;;23.62;73.65
16595;BME280;8410;52.532;13.336;2022-08-01T09:40:52;100914.75;;;23.56;75.09
16595;BME280;8410;52.532;13.336;2022-08-01T09:43:23;100919.34;;;23.51;74.17
16595;BME280;8410;52.532;13.336;2022-08-01T09:45:53;100917.81;;;23.68;73.81
16595;BME280;8410;52.532;13.336;2022-08-01T09:48:24;100920.72;;;24.06;72.77
16595;BME280;8410;52.532;13.336;2022-08-01T09:50:57;100930.41;;;23.36;75.96
16595;BME280;8410;52.532;13.336;2022-08-01T09:53:45;100928.81;;;23.55;74.52
16595;BME280;8410;52.532;13.336;2022-08-01T09:56:21;100932.91;;;23.86;73.70
16595;BME280;8410;52.532;13.336;2022-08-01T09:58:55;100933.28;;;24.41;71.77
16595;BME280;8410;52.532;13.336;2022-08-01T10:01:29;100932.16;;;24.05;72.93
16595;BME280;8410;52.532;13.336;2022-08-01T10:04:11;100935.94;;;23.97;73.01
16595;BME280;8410;52.532;13.336;2022-08-01T10:06:43;100939.34;;;23.55;73.96
16595;BME280;8410;52.532;13.336;2022-08-01T10:09:13;100939.63;;;23.71;73.30
16595;BME280;8410;52.532;13.336;2022-08-01T10:11:43;100942.56;;;23.86;73.58
16595;BME280;8410;52.532;13.336;2022-08-01T10:14:12;100940.22;;;24.00;72.17
16595;BME280;8410;52.532;13.336;2022-08-01T10:16:45;100949.47;;;23.88;72.19
16595;BME280;8410;52.532;13.336;2022-08-01T10:19:31;100954.94;;;23.37;74.54
16595;BME280;8410;52.532;13.336;2022-08-01T10:22:01;100957.06;;;23.50;73.94
16595;BME280;8410;52.532;13.336;2022-08-01T10:24:37;100952.91;;;23.67;73.55
16595;BME280;8410;52.532;13.336;2022-08-01T10:27:10;100958.91;;;23.70;72.66
16595;BME280;8410;52.532;13.336;2022-08-01T10:29:46;100959.09;;;23.19;75.06
16595;BME280;8410;52.532;13.336;2022-08-01T10:32:35;100960.03;;;23.18;74.37
16595;BME280;8410;52.532;13.336;2022-08-01T10:35:07;100954.53;;;23.24;74.87
16595;BME280;8410;52.532;13.336;2022-08-01T10:37:41;100960.53;;;23.27;75.18
16595;BME280;8410;52.532;13.336;2022-08-01T10:40:18;100949.91;;;23.99;72.14
16595;BME280;8410;52.532;13.336;2022-08-01T10:42:58;100960.16;;;24.06;72.43
16595;BME280;8410;52.532;13.336;2022-08-01T10:45:27;100954.69;;;23.90;73.05
16595;BME280;8410;52.532;13.336;2022-08-01T10:48:04;100966.88;;;23.69;73.62
16595;BME280;8410;52.532;13.336;2022-08-01T10:50:42;100959.00;;;24.13;72.78
16595;BME280;8410;52.532;13.336;2022-08-01T10:53:17;100951.16;;;24.33;71.97
16595;BME280;8410;52.532;13.336;2022-08-01T10:56:03;100959.72;;;23.49;73.63
16595;BME280;8410;52.532;13.336;2022-08-01T10:58:37;100968.16;;;23.57;74.14
16595;BME280;8410;52.532;13.336;2022-08-01T11:01:23;100966.53;;;23.78;73.31
16595;BME280;8410;52.532;13.336;2022-08-01T11:04:05;100955.31;;;23.49;73.78
16595;BME280;8410;52.532;13.336;2022-08-01T11:06:51;100963.59;;;24.08;72.51
16595;BME280;8410;52.532;13.336;2022-08-01T11:09:28;100957.00;;;23.97;72.42
16595;BME280;8410;52.532;13.336;2022-08-01T11:12:07;100965.03;;;24.59;70.82
16595;BME280;8410;52.532;13.336;2022-08-01T11:15:23;100969.38;;;23.95;72.83
16595;BME280;8410;52.532;13.336;2022-08-01T11:17:58;100982.31;;;23.78;72.33
16595;BME280;8410;52.532;13.336;2022-08-01T11:20:29;100991.19;;;23.27;75.21
16595;BME280;8410;52.532;13.336;2022-08-01T11:23:26;100992.47;;;22.90;79.48
16595;BME280;8410;52.532;13.336;2022-08-01T11:26:11;101002.41;;;21.99;82.57
16595;BME280;8410;52.532;13.336;2022-08-01T11:28:46;101000.88;;;22.21;83.59
16595;BME280;8410;52.532;13.336;2022-08-01T11:31:35;101000.69;;;22.28;83.84
16595;BME280;8410;52.532;13.336;2022-08-01T11:34:04;101009.78;;;22.44;84.13
16595;BME280;8410;52.532;13.336;2022-08-01T11:36:32;101010.09;;;22.61;84.45
16595;BME280;8410;52.532;13.336;2022-08-01T11:39:20;101006.56;;;23.61;79.35
16595;BME280;8410;52.532;13.336;2022-08-01T11:41:48;101010.00;;;23.15;79.71
16595;BME280;8410;52.532;13.336;2022-08-01T11:44:20;101005.72;;;23.61;78.01
16595;BME280;8410;52.532;13.336;2022-08-01T11:47:03;101010.41;;;23.52;77.01
16595;BME280;8410;52.532;13.336;2022-08-01T11:49:49;101008.84;;;23.47;76.89
16595;BME280;8410;52.532;13.336;2022-08-01T11:52:27;101007.50;;;23.84;75.87
16595;BME280;8410;52.532;13.336;2022-08-01T11:54:57;100999.41;;;24.76;72.51
16595;BME280;8410;52.532;13.336;2022-08-01T11:57:28;101003.47;;;25.04;71.40
16595;BME280;8410;52.532;13.336;2022-08-01T12:00:09;100995.91;;;25.75;68.89
16595;BME280;8410;52.532;13.336;2022-08-01T12:02:46;100990.06;;;26.06;68.05
16595;BME280;8410;52.532;13.336;2022-08-01T12:05:16;100997.22;;;25.85;66.29
16595;BME280;8410;52.532;13.336;2022-08-01T12:07:52;100988.84;;;26.31;65.73
16595;BME280;8410;52.532;13.336;2022-08-01T12:10:24;100991.63;;;25.35;65.79
16595;BME280;8410;52.532;13.336;2022-08-01T12:12:54;100987.41;;;25.87;65.84
16595;BME280;8410;52.532;13.336;2022-08-01T12:15:24;100987.44;;;26.24;63.75
16595;BME280;8410;52.532;13.336;2022-08-01T12:18:00;100980.06;;;26.13;64.19
16595;BME280;8410;52.532;13.336;2022-08-01T12:20:30;100985.00;;;25.83;64.73
16595;BME280;8410;52.532;13.336;2022-08-01T12:23:06;100989.13;;;26.25;63.60
16595;BME280;8410;52.532;13.336;2022-08-01T12:25:35;100996.34;;;26.04;64.58
16595;BME280;8410;52.532;13.336;2022-08-01T12:28:05;100992.69;;;25.87;64.79
16595;BME280;8410;52.532;13.336;2022-08-01T12:30:35;100991.19;;;25.82;65.56
16595;BME280;8410;52.532;13.336;2022-08-01T12:33:07;100993.91;;;25.99;64.20
16595;BME280;8410;52.532;13.336;2022-08-01T12:35:37;100985.91;;;26.01;64.69
16595;BME280;8410;52.532;13.336;2022-08-01T12:38:15;100990.97;;;26.42;62.95
16595;BME280;8410;52.532;13.336;2022-08-01T12:40:45;100985.03;;;26.19;63.33
16595;BME280;8410;52.532;13.336;2022-08-01T12:43:22;100987.41;;;26.06;64.00
16595;BME280;8410;52.532;13.336;2022-08-01T12:45:57;100981.28;;;26.06;64.43
16595;BME280;8410;52.532;13.336;2022-08-01T12:48:30;100988.19;;;26.08;64.27
16595;BME280;8410;52.532;13.336;2022-08-01T12:51:02;100985.75;;;25.28;65.73
16595;BME280;8410;52.532;13.336;2022-08-01T12:53:34;100983.38;;;25.99;64.15
16595;BME280;8410;52.532;13.336;2022-08-01T12:56:07;100974.66;;;25.40;66.15
16595;BME280;8410;52.532;13.336;2022-08-01T12:58:36;100980.88;;;25.58;65.05
16595;BME280;8410;52.532;13.336;2022-08-01T13:01:06;100980.91;;;26.13;63.67
16595;BME280;8410;52.532;13.336;2022-08-01T13:03:36;100978.94;;;25.81;64.23
16595;BME280;8410;52.532;13.336;2022-08-01T13:06:11;100994.66;;;25.05;66.96
16595;BME280;8410;52.532;13.336;2022-08-01T13:08:41;100990.25;;;24.85;68.30
16595;BME280;8410;52.532;13.336;2022-08-01T13:11:12;100997.28;;;25.25;66.71
16595;BME280;8410;52.532;13.336;2022-08-01T13:13:44;100989.91;;;25.52;65.18
16595;BME280;8410;52.532;13.336;2022-08-01T13:16:16;100999.22;;;25.41;65.79
16595;BME280;8410;52.532;13.336;2022-08-01T13:19:01;100992.75;;;25.29;66.17